Main page
METAR-TAF:

METAR-TAF

Airports :

Srinagar International Airport

Srinagar, India

latitude: 33-59-14N, longitude: 074-46-27E, elevation: 1655 m

Current weather observation

The report was made 8 minutes ago, at 20:30 UTC
Wind 1 kt from variable directions
Temperature 6°C
Humidity 81%
Pressure 1024 hPa
Visibility: 6000 m
Scattered clouds at a height of 2000 ft
Broken clouds at a height of 9000 ft

METAR: VISR 272030Z VRB01KT 6000 SCT020 BKN090 06/03 Q1024 NOSIG

Time: 02:08 (20:38 UTC)

Forecast

The report was made 5 hours and 8 minutes ago, at 15:30 UTC
Forecast valid from 28 at 18 UTC to 29 at 06 UTC
Wind 2 kt from variable directions
Visibility: 6000 m
Few clouds at a height of 2500 ft
Scattered clouds at a height of 10000 ft
Broken clouds at a height of 20000 ft
Becoming
from 29 at 00 UTC to 29 at 02 UTC
Few clouds at a height of 2500 ft
Broken clouds at a height of 9000 ft

TAF: VISR 281530Z 2818/2906 VRB02KT 6000 FEW025 SCT100 BKN200 BECMG 2900/2902 FEW025 BKN090

Weather observations and forecasts of more than 4000 airports (METAR and TAF reports).

The available stations are represented by yellow and red dots on the map.

Hover mouse over dot to see the name of the station.

Then click to see weather observations and forecasts.

To change the map : click on the green buttons with a black cross to zoom in, on the green button with a dash to zoom out, or on the green arrows for adjacent maps.


METAR-TAF: